Time;durP1;ratioP1;P1;durP2;ratioP2;P2;SDS_P1;SDS_P2;PMS_P1;PMS_P2;Temp;Humidity;BMP_temperature;BMP_pressure;BME280_temperature;BME280_humidity;BME280_pressure;Samples;Min_cycle;Max_cycle;Signal;HPM_P1;HPM_P2
2023/04/04 00:00:20;;;;;;;5.90;3.28;;;-0.80;99.90;;;;;;5026486;28;20034;-46
2023/04/04 00:02:45;;;;;;;12.85;4.07;;;-0.80;99.90;;;;;;5025770;28;20041;-45
2023/04/04 00:05:11;;;;;;;9.15;3.95;;;-0.90;99.90;;;;;;5026340;28;20045;-44
2023/04/04 00:07:37;;;;;;;6.43;3.38;;;-0.80;99.90;;;;;;5025500;28;20094;-47
2023/04/04 00:10:03;;;;;;;7.38;3.83;;;-0.80;99.90;;;;;;5026066;28;20067;-44
2023/04/04 00:12:28;;;;;;;8.88;3.55;;;-0.80;99.90;;;;;;5023856;28;20103;-45
2023/04/04 00:14:54;;;;;;;10.15;3.85;;;-0.90;99.90;;;;;;5024586;28;20052;-45
2023/04/04 00:17:20;;;;;;;6.97;3.50;;;-1.00;99.90;;;;;;5026731;28;20120;-45
2023/04/04 00:19:46;;;;;;;7.20;3.10;;;-1.00;99.90;;;;;;5026479;28;20067;-46
2023/04/04 00:22:12;;;;;;;6.25;3.33;;;-1.00;99.90;;;;;;5026146;28;20432;-44
2023/04/04 00:24:38;;;;;;;9.30;4.03;;;-1.00;99.90;;;;;;5026051;28;20085;-44
2023/04/04 00:27:04;;;;;;;11.48;4.45;;;-0.90;99.90;;;;;;5026362;28;20084;-44
2023/04/04 00:29:30;;;;;;;6.28;4.05;;;-1.00;99.90;;;;;;5026014;28;20071;-45
2023/04/04 00:31:56;;;;;;;7.75;4.47;;;-1.00;99.90;;;;;;5024854;28;20091;-45
2023/04/04 00:34:22;;;;;;;10.73;5.50;;;-1.00;99.90;;;;;;5026091;28;20846;-45
2023/04/04 00:36:48;;;;;;;10.40;4.60;;;-1.00;99.90;;;;;;5026363;28;20148;-45
2023/04/04 00:39:14;;;;;;;9.95;4.88;;;-1.00;99.90;;;;;;5024271;28;20064;-45
2023/04/04 00:41:39;;;;;;;10.48;4.07;;;-1.10;99.90;;;;;;5025972;28;20041;-44
2023/04/04 00:44:05;;;;;;;9.10;4.68;;;-1.00;99.90;;;;;;5025836;28;20898;-45
2023/04/04 00:46:32;;;;;;;10.93;5.00;;;-1.00;99.90;;;;;;5025676;28;20517;-44
2023/04/04 00:48:58;;;;;;;13.70;4.72;;;-0.90;99.90;;;;;;5024337;28;20049;-44
2023/04/04 00:51:23;;;;;;;9.02;4.45;;;-0.80;99.90;;;;;;5023878;28;20056;-46
2023/04/04 00:53:50;;;;;;;15.52;5.63;;;-0.90;99.90;;;;;;5025980;28;20045;-45
2023/04/04 00:56:16;;;;;;;9.98;4.47;;;-0.90;99.90;;;;;;5026013;28;20107;-46
2023/04/04 00:58:43;;;;;;;11.68;5.60;;;-1.00;99.90;;;;;;5025963;28;20037;-47
2023/04/04 01:01:12;;;;;;;11.40;4.88;;;-1.10;99.90;;;;;;5024773;28;20045;-45
2023/04/04 01:03:38;;;;;;;10.35;4.70;;;-1.20;99.90;;;;;;5025524;28;20068;-45
2023/04/04 01:06:08;;;;;;;10.35;4.53;;;-1.30;99.90;;;;;;5025923;28;20077;-48
2023/04/04 01:08:36;;;;;;;10.50;4.78;;;-1.40;99.90;;;;;;5025103;28;20253;-45
2023/04/04 01:11:03;;;;;;;10.52;4.75;;;-1.50;99.90;;;;;;5025101;28;20037;-44
2023/04/04 01:13:28;;;;;;;8.30;4.82;;;-1.50;99.90;;;;;;5024116;28;20052;-44
2023/04/04 01:15:54;;;;;;;9.48;5.40;;;-1.60;99.90;;;;;;5024743;28;20042;-44
2023/04/04 01:18:22;;;;;;;11.13;5.10;;;-1.40;99.90;;;;;;5023029;28;20107;-44
2023/04/04 01:21:03;;;;;;;8.60;4.70;;;-1.50;99.90;;;;;;5025564;28;20604;-45
2023/04/04 01:23:50;;;;;;;9.40;4.18;;;-1.70;99.90;;;;;;5025695;28;20049;-45
2023/04/04 01:26:16;;;;;;;13.05;5.03;;;-1.70;99.90;;;;;;5025811;28;20602;-45
2023/04/04 01:28:41;;;;;;;11.52;5.38;;;-1.60;99.90;;;;;;5025661;28;20057;-45
2023/04/04 01:31:11;;;;;;;8.98;5.05;;;-1.60;99.90;;;;;;5024714;28;20050;-47
2023/04/04 01:33:45;;;;;;;11.93;5.05;;;-1.90;99.90;;;;;;5025887;28;20060;-47
2023/04/04 01:36:48;;;;;;;10.40;4.93;;;-1.90;99.90;;;;;;5026293;28;20038;-46
2023/04/04 01:39:26;;;;;;;10.32;4.82;;;-1.90;99.90;;;;;;5026018;28;20096;-45
2023/04/04 01:41:55;;;;;;;11.77;4.95;;;-1.90;99.90;;;;;;5025994;28;20053;-46
2023/04/04 01:44:21;;;;;;;8.23;4.38;;;-1.90;99.90;;;;;;5026153;28;20424;-46
2023/04/04 01:46:54;;;;;;;8.32;4.13;;;-1.90;99.90;;;;;;5026454;28;20056;-44
2023/04/04 01:49:22;;;;;;;10.23;5.10;;;-2.40;99.90;;;;;;5026582;28;20077;-45
2023/04/04 01:51:51;;;;;;;9.95;4.32;;;-2.00;99.90;;;;;;5025985;28;20048;-44
2023/04/04 01:54:18;;;;;;;8.88;4.10;;;-1.80;99.90;;;;;;5022055;28;20048;-44
2023/04/04 01:56:46;;;;;;;11.57;4.35;;;-2.00;99.90;;;;;;5025454;28;20041;-44
2023/04/04 01:59:12;;;;;;;8.25;3.67;;;-2.00;99.90;;;;;;5025756;28;20083;-44
2023/04/04 02:01:38;;;;;;;10.88;3.75;;;-2.00;99.90;;;;;;5024142;28;20483;-43
2023/04/04 02:04:04;;;;;;;8.07;3.92;;;-1.90;99.90;;;;;;5025517;28;20049;-43
2023/04/04 02:06:30;;;;;;;14.18;4.00;;;-1.80;99.90;;;;;;5025346;28;20060;-44
2023/04/04 02:08:56;;;;;;;11.27;3.72;;;-1.90;99.90;;;;;;5025217;28;20033;-44
2023/04/04 02:11:22;;;;;;;6.93;3.30;;;-1.80;99.90;;;;;;5025474;28;20174;-45
2023/04/04 02:13:48;;;;;;;8.25;3.33;;;-1.80;99.90;;;;;;5022815;28;20037;-45
2023/04/04 02:16:14;;;;;;;9.27;3.78;;;-1.80;99.90;;;;;;5025764;28;20075;-44
2023/04/04 02:18:40;;;;;;;7.00;3.47;;;-1.80;99.90;;;;;;5027785;28;20042;-45
2023/04/04 02:21:06;;;;;;;7.65;3.50;;;-1.80;99.90;;;;;;5029602;28;20111;-44
2023/04/04 02:23:32;;;;;;;8.38;3.47;;;-1.80;99.90;;;;;;5028602;28;20049;-43
2023/04/04 02:25:58;;;;;;;8.85;3.45;;;-1.80;99.90;;;;;;5028873;28;20045;-44
2023/04/04 02:28:23;;;;;;;8.05;3.00;;;-1.80;99.90;;;;;;5028640;28;20052;-46
2023/04/04 02:30:49;;;;;;;7.30;3.70;;;-1.80;99.90;;;;;;5028464;28;20044;-44
2023/04/04 02:33:15;;;;;;;7.60;3.30;;;-1.90;99.90;;;;;;5027595;28;20124;-45
2023/04/04 02:35:41;;;;;;;7.80;3.38;;;-1.90;99.90;;;;;;5028608;28;20092;-44
2023/04/04 02:38:07;;;;;;;6.93;3.28;;;-1.90;99.90;;;;;;5028780;28;20714;-44
2023/04/04 02:40:32;;;;;;;9.20;3.13;;;-2.00;99.90;;;;;;5027004;28;20042;-45
2023/04/04 02:42:58;;;;;;;9.32;3.20;;;-2.00;99.90;;;;;;5028694;28;20037;-44
2023/04/04 02:45:24;;;;;;;6.95;2.83;;;-2.00;99.90;;;;;;5028520;28;20180;-45
2023/04/04 02:47:50;;;;;;;10.98;2.97;;;-2.00;99.90;;;;;;5028132;28;20045;-44
2023/04/04 02:50:16;;;;;;;7.18;2.95;;;-2.00;99.90;;;;;;5028177;28;20734;-45
2023/04/04 02:52:42;;;;;;;10.80;2.60;;;-2.00;99.90;;;;;;5027680;28;20041;-45
2023/04/04 02:55:08;;;;;;;8.15;3.25;;;-2.00;99.90;;;;;;5026662;28;20045;-44
2023/04/04 02:57:34;;;;;;;8.20;2.90;;;-2.00;99.90;;;;;;5028029;28;20041;-45
2023/04/04 03:00:00;;;;;;;12.63;3.30;;;-2.00;99.90;;;;;;5027615;28;20804;-45
2023/04/04 03:02:25;;;;;;;8.60;3.22;;;-1.90;99.90;;;;;;5026319;28;20366;-45
2023/04/04 03:04:52;;;;;;;5.90;2.97;;;-2.10;99.90;;;;;;5026426;28;20116;-45
2023/04/04 03:07:17;;;;;;;8.25;2.50;;;-2.10;99.90;;;;;;5028226;28;20038;-45
2023/04/04 03:09:44;;;;;;;7.78;2.70;;;-2.00;99.90;;;;;;5026498;28;20052;-44
2023/04/04 03:12:10;;;;;;;8.18;2.70;;;-2.00;99.90;;;;;;5024621;28;20469;-44
2023/04/04 03:14:36;;;;;;;6.75;2.78;;;-2.10;99.90;;;;;;5023964;28;20055;-45
2023/04/04 03:17:02;;;;;;;7.47;3.10;;;-2.10;99.90;;;;;;5021796;28;20451;-45
2023/04/04 03:19:28;;;;;;;7.90;2.75;;;-2.00;99.90;;;;;;5028054;28;20677;-44
2023/04/04 03:21:54;;;;;;;9.50;3.00;;;-2.10;99.90;;;;;;5027914;28;20099;-45
2023/04/04 03:24:20;;;;;;;9.25;2.90;;;;;;;;;;5027623;28;20125;-44
2023/04/04 03:26:45;;;;;;;5.95;2.40;;;-2.00;99.90;;;;;;5027837;28;20049;-45
2023/04/04 03:29:11;;;;;;;7.85;2.72;;;-1.90;99.90;;;;;;5027133;28;20099;-45
2023/04/04 03:31:37;;;;;;;6.15;3.20;;;-2.00;99.90;;;;;;5026361;28;20069;-45
2023/04/04 03:34:03;;;;;;;8.30;2.72;;;-2.00;99.90;;;;;;5027758;28;20422;-46
2023/04/04 03:36:29;;;;;;;9.40;2.80;;;-2.00;99.90;;;;;;5024303;28;20037;-45
2023/04/04 03:38:55;;;;;;;9.00;3.35;;;-2.00;99.90;;;;;;5026944;28;20511;-44
2023/04/04 03:41:21;;;;;;;9.00;2.75;;;-2.10;99.90;;;;;;5027369;28;20038;-44
2023/04/04 03:43:47;;;;;;;8.52;2.75;;;-2.10;99.90;;;;;;5026787;28;20045;-45
2023/04/04 03:46:13;;;;;;;9.90;3.67;;;-2.10;99.90;;;;;;5026968;28;20171;-46
2023/04/04 03:48:39;;;;;;;6.75;3.20;;;-2.10;99.90;;;;;;5026811;28;20057;-44
2023/04/04 03:51:05;;;;;;;6.45;2.55;;;-2.30;99.90;;;;;;5026805;28;20037;-45
2023/04/04 03:53:31;;;;;;;7.03;3.22;;;-2.10;99.90;;;;;;5026910;28;20487;-45
2023/04/04 03:55:57;;;;;;;5.03;2.63;;;-2.10;99.90;;;;;;5026615;28;20044;-45
2023/04/04 03:58:23;;;;;;;5.82;3.08;;;-2.20;99.90;;;;;;5026771;28;20041;-48
2023/04/04 04:00:48;;;;;;;8.93;2.88;;;-2.30;99.90;;;;;;5025944;28;20049;-45
2023/04/04 04:03:14;;;;;;;7.93;2.95;;;-2.20;99.90;;;;;;5026587;28;20072;-46
2023/04/04 04:05:40;;;;;;;8.00;3.22;;;-2.20;99.90;;;;;;5026603;28;20045;-45
2023/04/04 04:08:06;;;;;;;13.40;3.70;;;-2.20;99.90;;;;;;5026592;28;20056;-46
2023/04/04 04:10:32;;;;;;;7.28;3.00;;;-2.40;99.90;;;;;;5026085;28;20041;-44
2023/04/04 04:12:58;;;;;;;6.90;3.55;;;-2.50;99.90;;;;;;5019566;28;20055;-48
2023/04/04 04:15:24;;;;;;;7.47;3.28;;;-1.10;99.90;;;;;;5026412;28;20045;-45
2023/04/04 04:17:50;;;;;;;7.05;2.95;;;-2.40;99.90;;;;;;5026123;28;20124;-46
2023/04/04 04:20:15;;;;;;;7.10;2.83;;;-2.50;99.90;;;;;;5026087;28;20566;-44
2023/04/04 04:22:48;;;;;;;6.93;3.10;;;-2.50;99.90;;;;;;5026085;28;20045;-44
2023/04/04 04:25:16;;;;;;;6.80;3.28;;;-2.60;99.90;;;;;;5024466;28;20128;-45
2023/04/04 04:27:45;;;;;;;7.63;3.10;;;;;;;;;;5024579;28;20056;-44
2023/04/04 04:30:12;;;;;;;7.20;2.90;;;;;;;;;;5025350;28;20037;-44
2023/04/04 04:32:37;;;;;;;6.30;3.08;;;-2.80;99.90;;;;;;5024161;28;20053;-45
2023/04/04 04:35:04;;;;;;;9.77;3.10;;;-2.70;99.90;;;;;;5026016;28;20670;-45
2023/04/04 04:37:29;;;;;;;5.28;2.95;;;-2.70;99.90;;;;;;5026295;28;20049;-45
2023/04/04 04:39:55;;;;;;;8.73;2.78;;;-2.80;99.90;;;;;;5025311;28;20135;-45
2023/04/04 04:42:21;;;;;;;5.90;2.88;;;-2.80;99.90;;;;;;5025952;28;20434;-44
2023/04/04 04:44:47;;;;;;;10.95;4.00;;;-2.80;99.90;;;;;;5025762;28;20492;-45
2023/04/04 04:47:12;;;;;;;8.45;3.25;;;-2.90;99.90;;;;;;5025752;28;20037;-44
2023/04/04 04:49:38;;;;;;;7.30;3.47;;;-2.90;99.90;;;;;;5026379;28;20061;-45
2023/04/04 04:52:04;;;;;;;11.10;3.33;;;-3.00;99.90;;;;;;5026024;28;20060;-46
2023/04/04 04:54:29;;;;;;;7.80;3.55;;;-3.00;99.90;;;;;;5026000;28;20045;-44
2023/04/04 04:56:55;;;;;;;6.93;3.47;;;-3.00;99.90;;;;;;5025394;28;20049;-44
2023/04/04 04:59:23;;;;;;;6.70;3.08;;;-3.10;99.90;;;;;;5025718;28;20184;-46
2023/04/04 05:01:50;;;;;;;8.73;2.92;;;-3.10;99.90;;;;;;5022440;28;20053;-47
2023/04/04 05:04:16;;;;;;;8.02;2.88;;;-3.10;99.90;;;;;;5025729;28;20096;-46
2023/04/04 05:06:42;;;;;;;9.50;3.40;;;-3.10;99.90;;;;;;5026122;28;20046;-44
2023/04/04 05:09:07;;;;;;;7.13;3.60;;;-3.10;99.90;;;;;;5026036;28;20361;-47
2023/04/04 05:11:36;;;;;;;7.18;3.25;;;-3.10;99.90;;;;;;5026068;28;20102;-45
2023/04/04 05:14:01;;;;;;;10.20;4.13;;;-3.10;99.90;;;;;;5025493;28;20045;-45
2023/04/04 05:16:27;;;;;;;11.60;4.80;;;-2.90;99.90;;;;;;5025036;28;20029;-45
2023/04/04 05:18:52;;;;;;;9.35;4.85;;;-2.50;99.90;;;;;;5025454;28;20081;-45
2023/04/04 05:21:18;;;;;;;8.43;4.95;;;-2.90;99.90;;;;;;5025872;28;20148;-44
2023/04/04 05:23:44;;;;;;;8.65;5.40;;;-2.90;99.90;;;;;;5025734;28;20049;-45
2023/04/04 05:26:10;;;;;;;14.32;5.25;;;0.40;99.90;;;;;;5023953;28;20041;-44
2023/04/04 05:28:35;;;;;;;11.60;5.28;;;-2.60;99.90;;;;;;5025618;28;20049;-45
2023/04/04 05:31:01;;;;;;;10.20;6.03;;;-1.50;99.90;;;;;;5018199;28;20057;-43
2023/04/04 05:33:27;;;;;;;13.77;6.45;;;-1.30;99.90;;;;;;5002812;28;20046;-41
2023/04/04 05:35:52;;;;;;;12.07;6.50;;;-0.60;99.90;;;;;;5015279;28;20368;-44
2023/04/04 05:38:18;;;;;;;12.45;5.88;;;-0.40;99.90;;;;;;5019035;28;20474;-46
2023/04/04 05:40:51;;;;;;;9.07;5.50;;;0.00;99.90;;;;;;5008061;28;20132;-45
2023/04/04 05:43:20;;;;;;;10.07;4.97;;;0.50;99.90;;;;;;5013548;28;20049;-45
2023/04/04 05:45:46;;;;;;;11.35;4.88;;;0.60;99.90;;;;;;5013062;28;20114;-46
2023/04/04 05:48:11;;;;;;;9.00;4.78;;;1.90;99.90;;;;;;5007437;28;20045;-49
2023/04/04 05:50:37;;;;;;;7.07;4.43;;;1.90;99.90;;;;;;5030616;28;20921;-48
2023/04/04 05:53:03;;;;;;;9.23;3.97;;;2.10;99.90;;;;;;5011733;28;20045;-50
2023/04/04 05:55:29;;;;;;;10.27;3.60;;;2.30;99.90;;;;;;5023299;28;20038;-45
2023/04/04 05:57:56;;;;;;;8.07;4.65;;;2.20;99.90;;;;;;5020838;28;20394;-46
2023/04/04 06:00:22;;;;;;;5.07;3.42;;;3.90;99.90;;;;;;5010048;28;20047;-41
2023/04/04 06:02:48;;;;;;;6.18;4.05;;;3.60;99.90;;;;;;5012044;28;20041;-43
2023/04/04 06:05:14;;;;;;;6.13;3.10;;;3.70;99.90;;;;;;5000466;28;20045;-42
2023/04/04 06:07:40;;;;;;;5.68;3.42;;;3.30;99.90;;;;;;5034546;28;20052;-43
2023/04/04 06:10:07;;;;;;;5.97;3.38;;;3.50;99.90;;;;;;5033326;28;20045;-44
2023/04/04 06:12:33;;;;;;;7.47;3.75;;;3.70;99.90;;;;;;5005737;28;20177;-44
2023/04/04 06:14:58;;;;;;;4.22;2.85;;;3.40;99.90;;;;;;5013579;28;20033;-50
2023/04/04 06:17:24;;;;;;;5.57;2.90;;;4.00;99.90;;;;;;5021349;28;20061;-51
2023/04/04 06:19:50;;;;;;;6.82;2.53;;;3.30;99.90;;;;;;5030148;28;20455;-48
2023/04/04 06:22:16;;;;;;;4.95;2.30;;;3.40;99.90;;;;;;5029523;28;20048;-48
2023/04/04 06:24:42;;;;;;;4.82;2.67;;;3.30;99.90;;;;;;5029760;28;20103;-51
2023/04/04 06:27:08;;;;;;;8.18;2.80;;;3.50;99.90;;;;;;5031199;28;20041;-50
2023/04/04 06:29:33;;;;;;;5.38;2.47;;;3.80;99.90;;;;;;5031363;28;20044;-49
2023/04/04 06:31:59;;;;;;;6.57;2.28;;;4.90;99.90;;;;;;5028989;28;20045;-48
2023/04/04 06:34:25;;;;;;;3.90;2.35;;;4.90;99.90;;;;;;5027190;28;20056;-50
2023/04/04 06:36:51;;;;;;;7.20;2.67;;;5.10;99.90;;;;;;5028583;28;20037;-48
2023/04/04 06:39:17;;;;;;;7.97;2.30;;;7.00;99.90;;;;;;5031879;28;20086;-52
2023/04/04 06:41:42;;;;;;;7.80;2.20;;;6.40;99.90;;;;;;5028559;28;20041;-49
2023/04/04 06:44:08;;;;;;;5.95;1.60;;;6.90;99.90;;;;;;5033102;28;20115;-51
2023/04/04 06:46:36;;;;;;;10.25;2.10;;;7.40;99.90;;;;;;5031419;28;20450;-48
2023/04/04 06:49:02;;;;;;;5.22;2.20;;;6.60;99.90;;;;;;5032618;28;20133;-51
2023/04/04 06:51:28;;;;;;;3.90;1.77;;;5.70;99.90;;;;;;5032186;28;20124;-51
2023/04/04 06:53:55;;;;;;;5.70;1.92;;;5.50;99.90;;;;;;5032631;28;20092;-48
2023/04/04 06:56:22;;;;;;;5.78;2.35;;;4.70;99.90;;;;;;5031954;28;20396;-50
2023/04/04 06:58:48;;;;;;;5.57;2.88;;;4.60;99.90;;;;;;5031419;28;20033;-48
2023/04/04 07:01:14;;;;;;;5.50;2.50;;;4.40;99.90;;;;;;5030542;28;20072;-49
2023/04/04 07:03:40;;;;;;;4.10;2.28;;;4.30;99.90;;;;;;5031029;28;20033;-50
2023/04/04 07:06:05;;;;;;;5.65;2.45;;;4.00;99.90;;;;;;5031285;28;20056;-48
2023/04/04 07:08:32;;;;;;;4.53;2.15;;;3.90;99.90;;;;;;5031847;28;20678;-52
2023/04/04 07:10:59;;;;;;;5.45;2.10;;;4.10;99.90;;;;;;5027777;28;20053;-48
2023/04/04 07:13:24;;;;;;;5.07;1.70;;;3.80;99.90;;;;;;5007450;28;20057;-51
2023/04/04 07:15:50;;;;;;;5.30;2.30;;;3.70;99.90;;;;;;5016649;28;20025;-51
2023/04/04 07:18:16;;;;;;;6.50;2.10;;;3.50;99.90;;;;;;5016417;28;20033;-51
2023/04/04 07:20:44;;;;;;;8.10;2.17;;;3.40;99.90;;;;;;5015234;28;20391;-51
2023/04/04 07:23:10;;;;;;;5.30;2.05;;;3.30;99.90;;;;;;5014161;28;20048;-47
2023/04/04 07:25:37;;;;;;;7.40;2.33;;;3.30;99.90;;;;;;5015259;28;20033;-48
2023/04/04 07:28:02;;;;;;;5.82;1.95;;;3.30;99.90;;;;;;5015225;28;20030;-50
2023/04/04 07:30:31;;;;;;;6.53;1.75;;;3.50;99.90;;;;;;5013163;28;20053;-48
2023/04/04 07:32:58;;;;;;;3.75;1.50;;;3.30;99.90;;;;;;5015464;28;20053;-49
2023/04/04 07:35:24;;;;;;;5.63;1.70;;;3.40;99.90;;;;;;5014416;28;20723;-49
2023/04/04 07:37:50;;;;;;;4.10;1.48;;;3.50;99.90;;;;;;5013946;28;20652;-52
2023/04/04 07:40:17;;;;;;;6.80;1.42;;;3.50;99.90;;;;;;5015600;28;20502;-49
2023/04/04 07:42:49;;;;;;;9.23;1.27;;;3.50;99.90;;;;;;5015274;28;20037;-49
2023/04/04 07:45:15;;;;;;;3.20;1.45;;;;;;;;;;5014437;28;20617;-52
2023/04/04 07:47:44;;;;;;;5.45;1.48;;;3.60;99.90;;;;;;5016568;28;20168;-49
2023/04/04 07:50:12;;;;;;;3.33;1.00;;;3.70;99.90;;;;;;5015277;28;20041;-51
2023/04/04 07:52:38;;;;;;;4.25;0.85;;;4.40;99.90;;;;;;5015664;28;20103;-50
2023/04/04 07:55:06;;;;;;;3.70;1.50;;;4.40;99.90;;;;;;5018322;28;20037;-50
2023/04/04 07:57:38;;;;;;;4.00;1.40;;;4.90;99.00;;;;;;5024956;28;20045;-52
2023/04/04 08:00:11;;;;;;;2.97;1.20;;;5.30;98.40;;;;;;5024694;28;20053;-50
2023/04/04 08:02:37;;;;;;;4.95;1.20;;;5.40;97.30;;;;;;5023746;28;20191;-52
2023/04/04 08:05:04;;;;;;;4.03;1.10;;;5.70;97.50;;;;;;5025954;28;20506;-50
2023/04/04 08:07:29;;;;;;;3.97;1.20;;;6.00;97.10;;;;;;5020071;28;20407;-53
2023/04/04 08:09:55;;;;;;;4.75;1.10;;;6.10;96.30;;;;;;5016757;28;20052;-51
2023/04/04 08:12:21;;;;;;;4.10;0.80;;;6.00;97.10;;;;;;5006665;28;20144;-51
2023/04/04 08:14:47;;;;;;;5.72;1.15;;;6.00;95.40;;;;;;5006396;28;20407;-49
2023/04/04 08:17:17;;;;;;;6.10;1.20;;;6.40;97.70;;;;;;5013156;28;20041;-52
2023/04/04 08:19:43;;;;;;;4.88;0.90;;;7.70;95.40;;;;;;5012817;28;21459;-51
2023/04/04 08:22:09;;;;;;;3.33;1.10;;;7.00;94.00;;;;;;5014382;28;20041;-51
2023/04/04 08:24:35;;;;;;;5.00;1.13;;;9.30;94.90;;;;;;5007692;28;20032;-50
2023/04/04 08:27:01;;;;;;;5.18;1.27;;;10.10;92.90;;;;;;5010514;28;20033;-52
2023/04/04 08:29:27;;;;;;;6.38;1.10;;;11.20;91.60;;;;;;5009914;28;20048;-51
2023/04/04 08:31:53;;;;;;;6.72;1.13;;;12.60;87.90;;;;;;5011602;28;21399;-52
2023/04/04 08:34:19;;;;;;;4.85;1.30;;;13.30;82.60;;;;;;5011411;28;20052;-52
2023/04/04 08:36:45;;;;;;;4.47;1.15;;;14.00;79.00;;;;;;5011199;28;20038;-53
2023/04/04 08:39:11;;;;;;;5.90;0.90;;;14.50;76.10;;;;;;5011508;28;20047;-53
2023/04/04 08:41:40;;;;;;;3.45;0.93;;;14.80;74.00;;;;;;5011862;28;20029;-53
2023/04/04 08:44:10;;;;;;;5.88;1.50;;;15.10;71.70;;;;;;5005192;28;20704;-52
2023/04/04 08:46:37;;;;;;;4.07;1.00;;;15.70;65.20;;;;;;5011069;28;20920;-52
2023/04/04 08:49:03;;;;;;;5.43;0.80;;;16.50;63.50;;;;;;5014671;28;20032;-50
2023/04/04 08:51:30;;;;;;;3.58;0.93;;;16.60;60.20;;;;;;5012607;28;20048;-52
2023/04/04 08:53:57;;;;;;;3.33;0.88;;;16.50;59.40;;;;;;5011694;28;20172;-49
2023/04/04 08:56:23;;;;;;;4.97;1.02;;;16.20;57.30;;;;;;5013387;28;20041;-51
2023/04/04 08:58:49;;;;;;;4.70;1.10;;;16.10;57.60;;;;;;5014712;28;20087;-50
2023/04/04 09:01:15;;;;;;;3.63;1.00;;;15.60;57.00;;;;;;5012390;28;20030;-49
2023/04/04 09:03:42;;;;;;;3.63;0.70;;;14.80;58.00;;;;;;5011227;28;20560;-54
2023/04/04 09:06:09;;;;;;;4.65;0.80;;;14.50;59.20;;;;;;5024993;28;20049;-51
2023/04/04 09:08:35;;;;;;;3.03;0.85;;;14.30;59.00;;;;;;5012391;28;20037;-52
2023/04/04 09:11:03;;;;;;;4.30;1.40;;;14.80;61.10;;;;;;5012367;28;20766;-53
2023/04/04 09:13:28;;;;;;;4.57;1.00;;;15.60;60.00;;;;;;5002353;28;20665;-55
2023/04/04 09:15:56;;;;;;;3.72;0.65;;;15.60;59.50;;;;;;5011906;28;20859;-53
2023/04/04 09:18:22;;;;;;;2.92;0.80;;;15.20;60.30;;;;;;5011592;28;20038;-51
2023/04/04 09:20:48;;;;;;;3.08;0.70;;;15.60;61.10;;;;;;5014574;28;20037;-52
2023/04/04 09:23:18;;;;;;;3.97;0.88;;;18.40;57.30;;;;;;5013700;28;20695;-53
2023/04/04 09:26:02;;;;;;;3.22;0.68;;;18.30;57.60;;;;;;5017176;28;20033;-53
2023/04/04 09:28:28;;;;;;;2.53;0.55;;;19.30;51.20;;;;;;5023400;28;20384;-50
2023/04/04 09:30:54;;;;;;;4.65;0.70;;;19.80;54.40;;;;;;5017406;28;20046;-50
2023/04/04 09:33:22;;;;;;;3.03;0.63;;;20.10;52.60;;;;;;5016099;28;20038;-54
2023/04/04 09:36:11;;;;;;;4.28;0.75;;;20.00;51.40;;;;;;5017771;28;20446;-53
2023/04/04 09:38:39;;;;;;;3.85;0.98;;;20.00;50.70;;;;;;5019781;28;20057;-54
2023/04/04 09:41:08;;;;;;;2.85;1.25;;;19.40;50.90;;;;;;5013704;28;20037;-54
2023/04/04 09:43:34;;;;;;;3.85;0.82;;;19.20;51.80;;;;;;5017601;28;20048;-54
2023/04/04 09:46:00;;;;;;;4.55;0.98;;;19.50;50.80;;;;;;5017942;28;20127;-53
2023/04/04 09:48:32;;;;;;;4.30;0.98;;;19.30;48.90;;;;;;5017867;28;20045;-54
2023/04/04 09:50:58;;;;;;;7.60;1.20;;;18.60;48.70;;;;;;5027229;28;20025;-54
2023/04/04 09:53:24;;;;;;;5.63;0.95;;;18.30;50.90;;;;;;5027711;28;20056;-54
2023/04/04 09:55:54;;;;;;;3.95;1.25;;;18.20;51.90;;;;;;5020006;28;20128;-55
2023/04/04 09:58:25;;;;;;;3.72;1.33;;;17.60;51.30;;;;;;5017784;28;20063;-54
2023/04/04 10:00:54;;;;;;;3.92;0.80;;;17.00;52.00;;;;;;5033016;28;20038;-55
2023/04/04 10:03:22;;;;;;;3.22;0.88;;;16.30;53.00;;;;;;5033842;28;20056;-54
2023/04/04 10:05:55;;;;;;;5.97;1.38;;;15.70;52.00;;;;;;5030076;28;20643;-54
2023/04/04 10:08:21;;;;;;;3.30;1.05;;;15.30;52.10;;;;;;5028930;28;20045;-54
2023/04/04 10:10:55;;;;;;;2.30;0.90;;;15.20;51.90;;;;;;5032155;28;20049;-54
2023/04/04 10:13:27;;;;;;;3.00;0.57;;;15.30;53.50;;;;;;5030254;28;20045;-54
2023/04/04 10:15:58;;;;;;;3.15;0.60;;;15.50;51.00;;;;;;5032510;28;20061;-53
2023/04/04 10:18:29;;;;;;;3.38;0.90;;;15.90;51.10;;;;;;5031165;28;20041;-53
2023/04/04 10:20:56;;;;;;;2.55;0.90;;;16.30;50.30;;;;;;5031010;28;20120;-53
2023/04/04 10:23:25;;;;;;;3.05;0.63;;;16.80;49.90;;;;;;5030863;28;20075;-53
2023/04/04 10:25:55;;;;;;;2.10;0.77;;;17.30;49.40;;;;;;5029673;28;20045;-50
2023/04/04 10:28:21;;;;;;;3.00;0.80;;;17.60;49.20;;;;;;5026489;28;20053;-53
2023/04/04 10:31:01;;;;;;;4.07;1.00;;;17.50;49.30;;;;;;5031056;28;20037;-59
2023/04/04 10:33:43;;;;;;;2.38;0.75;;;17.50;48.70;;;;;;5028032;28;20462;-54
2023/04/04 10:36:29;;;;;;;3.45;0.70;;;17.10;47.90;;;;;;5026136;28;20037;-53
2023/04/04 10:39:07;;;;;;;3.70;0.80;;;16.90;46.90;;;;;;5024690;28;20037;-56
2023/04/04 10:41:35;;;;;;;4.03;1.23;;;16.50;46.90;;;;;;5021492;28;20050;-53
2023/04/04 10:44:11;;;;;;;2.97;0.95;;;16.10;48.00;;;;;;5024331;28;20029;-54
2023/04/04 10:46:40;;;;;;;4.07;0.63;;;16.10;49.20;;;;;;5022778;28;20052;-54
2023/04/04 10:49:06;;;;;;;3.30;0.90;;;15.40;48.50;;;;;;5025862;28;20041;-53
2023/04/04 10:51:32;;;;;;;4.13;1.38;;;14.60;50.50;;;;;;5027204;28;20144;-52
2023/04/04 10:53:58;;;;;;;2.80;0.60;;;13.60;50.00;;;;;;5027667;28;20095;-51
2023/04/04 10:56:24;;;;;;;3.65;0.80;;;13.10;51.30;;;;;;5023260;28;20061;-53
2023/04/04 10:59:07;;;;;;;5.90;0.80;;;12.80;51.70;;;;;;5020772;28;20057;-46
2023/04/04 11:01:48;;;;;;;;;;;12.50;52.10;;;;;;5029549;28;20037;-48
2023/04/04 11:04:18;;;;;;;6.10;1.05;;;12.50;53.80;;;;;;5028118;28;20330;-47
2023/04/04 11:07:05;;;;;;;3.10;0.90;;;12.30;52.70;;;;;;5027852;28;20840;-49
2023/04/04 11:09:47;;;;;;;6.13;0.80;;;12.10;52.60;;;;;;5027718;28;20140;-47
2023/04/04 11:12:19;;;;;;;5.80;1.10;;;11.90;53.10;;;;;;5020351;28;20036;-49
2023/04/04 11:15:20;;;;;;;1.95;0.60;;;11.80;53.90;;;;;;5024401;28;20045;-47
2023/04/04 11:17:50;;;;;;;4.45;0.70;;;11.70;53.30;;;;;;4987977;28;20045;-48
2023/04/04 11:20:22;;;;;;;4.15;0.57;;;11.60;53.80;;;;;;5026313;28;20083;-46
2023/04/04 11:23:13;;;;;;;3.15;0.65;;;11.20;53.40;;;;;;5023864;28;20045;-49
2023/04/04 11:25:51;;;;;;;4.40;0.73;;;11.20;55.40;;;;;;5023972;28;20045;-47
2023/04/04 11:28:35;;;;;;;4.22;0.60;;;11.60;56.30;;;;;;5022919;28;20804;-48
2023/04/04 11:31:16;;;;;;;5.07;0.77;;;11.50;56.00;;;;;;5025779;28;20159;-48
2023/04/04 11:34:11;;;;;;;3.22;0.75;;;11.00;53.90;;;;;;5027125;28;20089;-48
2023/04/04 11:36:36;;;;;;;3.78;0.70;;;10.80;53.40;;;;;;5023519;28;20072;-46
2023/04/04 11:39:30;;;;;;;2.67;0.50;;;10.70;53.10;;;;;;5026605;28;20116;-46
2023/04/04 11:42:04;;;;;;;3.13;0.57;;;10.50;51.40;;;;;;5026351;28;20534;-46
2023/04/04 11:44:32;;;;;;;3.08;1.25;;;10.30;52.00;;;;;;5026488;28;20372;-47
2023/04/04 11:47:05;;;;;;;2.20;0.88;;;10.20;52.30;;;;;;5026852;28;20041;-47
2023/04/04 11:49:37;;;;;;;3.85;0.50;;;10.10;52.30;;;;;;5024768;28;20052;-46
2023/04/04 11:52:14;;;;;;;4.03;1.17;;;9.90;52.70;;;;;;5026221;28;20133;-48
2023/04/04 11:54:42;;;;;;;4.28;0.75;;;9.90;52.90;;;;;;5027017;28;20111;-47
2023/04/04 11:57:14;;;;;;;2.08;0.65;;;9.80;53.20;;;;;;5026550;28;20073;-50
2023/04/04 11:59:44;;;;;;;2.65;0.50;;;9.90;54.50;;;;;;5024594;28;20049;-45
2023/04/04 12:02:12;;;;;;;5.05;0.80;;;10.10;54.40;;;;;;5025762;28;20167;-45
2023/04/04 12:04:44;;;;;;;4.20;0.82;;;10.30;54.40;;;;;;5026909;28;20127;-45
2023/04/04 12:07:11;;;;;;;2.30;0.77;;;10.20;54.00;;;;;;5022045;28;20376;-46
2023/04/04 12:09:37;;;;;;;3.22;0.60;;;10.30;54.00;;;;;;5025652;28;20041;-46
2023/04/04 12:12:04;;;;;;;2.63;0.73;;;10.50;54.10;;;;;;5022822;28;20064;-47
2023/04/04 12:14:31;;;;;;;3.50;0.70;;;10.60;67.10;;;;;;5024661;28;20156;-47
2023/04/04 12:16:58;;;;;;;5.13;1.15;;;10.70;52.40;;;;;;5024959;28;20045;-46
2023/04/04 12:19:26;;;;;;;4.35;1.10;;;10.70;52.00;;;;;;5026455;28;20376;-46
2023/04/04 12:21:52;;;;;;;3.35;1.10;;;10.70;53.00;;;;;;5025879;28;20115;-49
2023/04/04 12:24:19;;;;;;;2.22;0.90;;;10.50;53.30;;;;;;5025862;28;20045;-47
2023/04/04 12:26:50;;;;;;;5.97;1.33;;;10.80;53.70;;;;;;5026278;28;20052;-46
2023/04/04 12:29:17;;;;;;;4.07;1.20;;;10.10;54.10;;;;;;5024745;28;20053;-48
2023/04/04 12:31:44;;;;;;;5.32;1.17;;;10.00;54.20;;;;;;5023170;28;20792;-46
2023/04/04 12:34:41;;;;;;;3.13;1.20;;;9.90;54.90;;;;;;5026075;28;20700;-45
2023/04/04 12:37:10;;;;;;;3.95;1.17;;;9.80;54.80;;;;;;5018120;28;20115;-46
2023/04/04 12:39:45;;;;;;;3.83;1.25;;;10.00;55.70;;;;;;5024703;28;20112;-47
2023/04/04 12:42:11;;;;;;;2.67;1.00;;;9.70;55.80;;;;;;5021533;28;20566;-47
2023/04/04 12:44:38;;;;;;;2.60;1.25;;;9.90;56.30;;;;;;5022664;28;20057;-50
2023/04/04 12:47:06;;;;;;;5.68;1.02;;;9.70;57.40;;;;;;5020903;28;20068;-47
2023/04/04 12:49:43;;;;;;;3.35;1.20;;;10.30;57.80;;;;;;5021351;28;20180;-47
2023/04/04 12:52:19;;;;;;;4.90;0.93;;;9.90;56.00;;;;;;5025042;28;20064;-50
2023/04/04 12:54:46;;;;;;;3.90;1.48;;;9.90;55.80;;;;;;5024206;28;20069;-45